sensor_id;sensor_type;location;lat;lon;timestamp;pressure;altitude;pressure_sealevel;temperature;humidity
7297;BME280;40758;54.038;11.684;2023-02-15T00:00:28;102838.13;;;-2.26;100.00
7297;BME280;40758;54.038;11.684;2023-02-15T00:02:57;102840.72;;;-2.33;100.00
7297;BME280;40758;54.038;11.684;2023-02-15T00:05:27;102840.75;;;-2.32;100.00
7297;BME280;40758;54.038;11.684;2023-02-15T00:07:56;102837.22;;;-2.32;100.00
7297;BME280;40758;54.038;11.684;2023-02-15T00:10:24;102835.44;;;-2.44;100.00
7297;BME280;40758;54.038;11.684;2023-02-15T00:12:53;102836.31;;;-2.39;100.00
7297;BME280;40758;54.038;11.684;2023-02-15T00:15:21;102833.72;;;-2.37;100.00
7297;BME280;40758;54.038;11.684;2023-02-15T00:17:49;102832.91;;;-2.14;100.00
7297;BME280;40758;54.038;11.684;2023-02-15T00:20:19;102833.81;;;-2.06;100.00
7297;BME280;40758;54.038;11.684;2023-02-15T00:22:47;102828.53;;;-1.96;100.00
7297;BME280;40758;54.038;11.684;2023-02-15T00:25:16;102822.44;;;-1.80;100.00
7297;BME280;40758;54.038;11.684;2023-02-15T00:27:44;102819.78;;;-1.80;100.00
7297;BME280;40758;54.038;11.684;2023-02-15T00:30:13;102815.41;;;-1.81;100.00
7297;BME280;40758;54.038;11.684;2023-02-15T00:32:41;102814.53;;;-1.86;100.00
7297;BME280;40758;54.038;11.684;2023-02-15T00:35:10;102814.47;;;-1.97;100.00
7297;BME280;40758;54.038;11.684;2023-02-15T00:37:39;102816.25;;;-2.07;100.00
7297;BME280;40758;54.038;11.684;2023-02-15T00:40:09;102811.81;;;-2.20;100.00
7297;BME280;40758;54.038;11.684;2023-02-15T00:42:37;102809.16;;;-2.26;100.00
7297;BME280;40758;54.038;11.684;2023-02-15T00:45:07;102817.00;;;-2.39;100.00
7297;BME280;40758;54.038;11.684;2023-02-15T00:47:35;102810.84;;;-2.49;100.00
7297;BME280;40758;54.038;11.684;2023-02-15T00:50:05;102816.06;;;-2.61;100.00
7297;BME280;40758;54.038;11.684;2023-02-15T00:52:34;102810.84;;;-2.55;100.00
7297;BME280;40758;54.038;11.684;2023-02-15T00:55:04;102808.22;;;-2.54;100.00
7297;BME280;40758;54.038;11.684;2023-02-15T00:57:33;102802.94;;;-2.55;100.00
7297;BME280;40758;54.038;11.684;2023-02-15T01:00:01;102792.44;;;-2.48;100.00
7297;BME280;40758;54.038;11.684;2023-02-15T01:02:29;102796.88;;;-2.30;100.00
7297;BME280;40758;54.038;11.684;2023-02-15T01:04:57;102784.56;;;-2.37;100.00
7297;BME280;40758;54.038;11.684;2023-02-15T01:07:26;102777.50;;;-2.50;100.00
7297;BME280;40758;54.038;11.684;2023-02-15T01:09:54;102783.66;;;-2.54;100.00
7297;BME280;40758;54.038;11.684;2023-02-15T01:12:24;102784.47;;;-2.63;100.00
7297;BME280;40758;54.038;11.684;2023-02-15T01:14:52;102780.09;;;-2.64;100.00
7297;BME280;40758;54.038;11.684;2023-02-15T01:17:20;102779.19;;;-2.70;100.00
7297;BME280;40758;54.038;11.684;2023-02-15T01:19:50;102782.69;;;-2.71;100.00
7297;BME280;40758;54.038;11.684;2023-02-15T01:22:19;102774.81;;;-2.73;100.00
7297;BME280;40758;54.038;11.684;2023-02-15T01:24:49;102772.13;;;-2.80;100.00
7297;BME280;40758;54.038;11.684;2023-02-15T01:27:18;102769.47;;;-2.88;100.00
7297;BME280;40758;54.038;11.684;2023-02-15T01:29:48;102772.94;;;-2.94;100.00
7297;BME280;40758;54.038;11.684;2023-02-15T01:32:16;102762.44;;;-2.89;100.00
7297;BME280;40758;54.038;11.684;2023-02-15T01:34:45;102762.56;;;-2.53;100.00
7297;BME280;40758;54.038;11.684;2023-02-15T01:37:13;102758.22;;;-2.40;100.00
7297;BME280;40758;54.038;11.684;2023-02-15T01:39:41;102756.50;;;-2.41;100.00
7297;BME280;40758;54.038;11.684;2023-02-15T01:42:11;102746.81;;;-2.45;100.00
7297;BME280;40758;54.038;11.684;2023-02-15T01:44:51;102745.03;;;-2.55;100.00
7297;BME280;40758;54.038;11.684;2023-02-15T01:47:25;102743.22;;;-2.65;100.00
7297;BME280;40758;54.038;11.684;2023-02-15T01:50:07;102741.50;;;-2.68;100.00
7297;BME280;40758;54.038;11.684;2023-02-15T01:52:43;102733.59;;;-2.69;100.00
7297;BME280;40758;54.038;11.684;2023-02-15T01:55:16;102724.84;;;-2.58;100.00
7297;BME280;40758;54.038;11.684;2023-02-15T01:57:45;102736.25;;;-2.60;100.00
7297;BME280;40758;54.038;11.684;2023-02-15T02:00:17;102731.84;;;-2.64;100.00
7297;BME280;40758;54.038;11.684;2023-02-15T02:02:51;102727.44;;;-2.71;100.00
7297;BME280;40758;54.038;11.684;2023-02-15T02:05:21;102724.78;;;-2.80;100.00
7297;BME280;40758;54.038;11.684;2023-02-15T02:07:54;102720.41;;;-2.78;100.00
7297;BME280;40758;54.038;11.684;2023-02-15T02:10:25;102712.56;;;-2.66;100.00
7297;BME280;40758;54.038;11.684;2023-02-15T02:12:58;102709.03;;;-2.65;100.00
7297;BME280;40758;54.038;11.684;2023-02-15T02:15:40;102705.53;;;-2.67;100.00
7297;BME280;40758;54.038;11.684;2023-02-15T02:18:28;102700.25;;;-2.64;100.00
7297;BME280;40758;54.038;11.684;2023-02-15T02:21:39;102695.03;;;-2.52;100.00
7297;BME280;40758;54.038;11.684;2023-02-15T02:24:49;102696.78;;;-2.62;100.00
7297;BME280;40758;54.038;11.684;2023-02-15T02:27:33;102695.00;;;-2.75;100.00
7297;BME280;40758;54.038;11.684;2023-02-15T02:30:49;102691.44;;;-2.91;100.00
7297;BME280;40758;54.038;11.684;2023-02-15T02:33:40;102685.22;;;-3.06;100.00
7297;BME280;40758;54.038;11.684;2023-02-15T02:36:30;102691.38;;;-3.06;100.00
7297;BME280;40758;54.038;11.684;2023-02-15T02:39:23;102682.59;;;-3.09;100.00
7297;BME280;40758;54.038;11.684;2023-02-15T02:42:05;102687.00;;;-3.10;100.00
7297;BME280;40758;54.038;11.684;2023-02-15T02:44:42;102685.22;;;-3.08;100.00
7297;BME280;40758;54.038;11.684;2023-02-15T02:47:18;102680.00;;;-2.96;100.00
7297;BME280;40758;54.038;11.684;2023-02-15T02:49:52;102685.25;;;-3.00;100.00
7297;BME280;40758;54.038;11.684;2023-02-15T02:52:40;102676.44;;;-3.08;100.00
7297;BME280;40758;54.038;11.684;2023-02-15T02:55:15;102667.69;;;-3.16;100.00
7297;BME280;40758;54.038;11.684;2023-02-15T02:57:53;102672.03;;;-3.23;100.00
7297;BME280;40758;54.038;11.684;2023-02-15T03:00:25;102665.88;;;-3.23;100.00
7297;BME280;40758;54.038;11.684;2023-02-15T03:03:00;102674.66;;;-3.23;100.00
7297;BME280;40758;54.038;11.684;2023-02-15T03:05:38;102669.38;;;-3.26;100.00
7297;BME280;40758;54.038;11.684;2023-02-15T03:08:09;102670.25;;;-3.30;100.00
7297;BME280;40758;54.038;11.684;2023-02-15T03:10:40;102667.59;;;-3.35;100.00
7297;BME280;40758;54.038;11.684;2023-02-15T03:13:09;102664.94;;;-3.42;100.00
7297;BME280;40758;54.038;11.684;2023-02-15T03:15:40;102664.09;;;-3.35;100.00
7297;BME280;40758;54.038;11.684;2023-02-15T03:18:34;102658.81;;;-3.37;100.00
7297;BME280;40758;54.038;11.684;2023-02-15T03:21:09;102652.69;;;-3.37;100.00
7297;BME280;40758;54.038;11.684;2023-02-15T03:23:55;102643.91;;;-3.42;100.00
7297;BME280;40758;54.038;11.684;2023-02-15T03:26:28;102647.44;;;-3.40;100.00
7297;BME280;40758;54.038;11.684;2023-02-15T03:29:00;102647.44;;;-3.40;100.00
7297;BME280;40758;54.038;11.684;2023-02-15T03:31:35;102637.78;;;-3.41;100.00
7297;BME280;40758;54.038;11.684;2023-02-15T03:34:09;102637.78;;;-3.41;100.00
7297;BME280;40758;54.038;11.684;2023-02-15T03:36:47;102636.91;;;-3.37;100.00
7297;BME280;40758;54.038;11.684;2023-02-15T03:39:29;102639.59;;;-3.28;100.00
7297;BME280;40758;54.038;11.684;2023-02-15T03:42:08;102626.53;;;-2.95;100.00
7297;BME280;40758;54.038;11.684;2023-02-15T03:44:50;102629.22;;;-2.69;100.00
7297;BME280;40758;54.038;11.684;2023-02-15T03:47:25;102627.47;;;-2.79;100.00
7297;BME280;40758;54.038;11.684;2023-02-15T03:50:00;102623.09;;;-2.72;100.00
7297;BME280;40758;54.038;11.684;2023-02-15T03:52:33;102623.09;;;-2.50;100.00
7297;BME280;40758;54.038;11.684;2023-02-15T03:55:04;102616.06;;;-2.52;100.00
7297;BME280;40758;54.038;11.684;2023-02-15T03:57:36;102618.72;;;-2.48;100.00
7297;BME280;40758;54.038;11.684;2023-02-15T04:00:24;102610.81;;;-2.46;100.00
7297;BME280;40758;54.038;11.684;2023-02-15T04:03:22;102602.91;;;-2.52;100.00
7297;BME280;40758;54.038;11.684;2023-02-15T04:05:54;102594.16;;;-2.56;100.00
7297;BME280;40758;54.038;11.684;2023-02-15T04:08:24;102599.41;;;-2.45;100.00
7297;BME280;40758;54.038;11.684;2023-02-15T04:11:12;102606.44;;;-2.52;100.00
7297;BME280;40758;54.038;11.684;2023-02-15T04:13:42;102607.31;;;-2.48;100.00
7297;BME280;40758;54.038;11.684;2023-02-15T04:16:10;102602.06;;;-2.48;100.00
7297;BME280;40758;54.038;11.684;2023-02-15T04:18:40;102602.94;;;-2.55;100.00
7297;BME280;40758;54.038;11.684;2023-02-15T04:21:29;102602.03;;;-2.51;100.00
7297;BME280;40758;54.038;11.684;2023-02-15T04:24:17;102589.78;;;-2.61;100.00
7297;BME280;40758;54.038;11.684;2023-02-15T04:27:04;102592.41;;;-2.73;100.00
7297;BME280;40758;54.038;11.684;2023-02-15T04:29:33;102595.00;;;-2.76;100.00
7297;BME280;40758;54.038;11.684;2023-02-15T04:32:02;102579.22;;;-2.64;100.00
7297;BME280;40758;54.038;11.684;2023-02-15T04:34:30;102580.09;;;-2.46;100.00
7297;BME280;40758;54.038;11.684;2023-02-15T04:36:58;102579.22;;;-2.46;100.00
7297;BME280;40758;54.038;11.684;2023-02-15T04:39:29;102572.25;;;-2.47;100.00
7297;BME280;40758;54.038;11.684;2023-02-15T04:41:58;102574.84;;;-2.50;100.00
7297;BME280;40758;54.038;11.684;2023-02-15T04:44:26;102565.19;;;-2.39;100.00
7297;BME280;40758;54.038;11.684;2023-02-15T04:46:58;102564.34;;;-2.35;100.00
7297;BME280;40758;54.038;11.684;2023-02-15T04:49:26;102571.31;;;-2.28;100.00
7297;BME280;40758;54.038;11.684;2023-02-15T04:51:57;102566.94;;;-2.24;100.00
7297;BME280;40758;54.038;11.684;2023-02-15T04:54:25;102565.19;;;-2.24;100.00
7297;BME280;40758;54.038;11.684;2023-02-15T04:56:55;102563.41;;;-2.28;100.00
7297;BME280;40758;54.038;11.684;2023-02-15T04:59:23;102560.81;;;-2.25;100.00
7297;BME280;40758;54.038;11.684;2023-02-15T05:01:52;102556.41;;;-2.23;100.00
7297;BME280;40758;54.038;11.684;2023-02-15T05:04:21;102555.53;;;-2.28;100.00
7297;BME280;40758;54.038;11.684;2023-02-15T05:06:49;102555.56;;;-2.41;100.00
7297;BME280;40758;54.038;11.684;2023-02-15T05:09:18;102558.19;;;-2.37;100.00
7297;BME280;40758;54.038;11.684;2023-02-15T05:11:46;102559.06;;;-2.46;100.00
7297;BME280;40758;54.038;11.684;2023-02-15T05:14:18;102563.44;;;-2.46;100.00
7297;BME280;40758;54.038;11.684;2023-02-15T05:16:47;102552.91;;;-2.52;100.00
7297;BME280;40758;54.038;11.684;2023-02-15T05:19:15;102546.78;;;-2.54;100.00
7297;BME280;40758;54.038;11.684;2023-02-15T05:21:44;102546.78;;;-2.57;100.00
7297;BME280;40758;54.038;11.684;2023-02-15T05:24:13;102537.16;;;-2.61;100.00
7297;BME280;40758;54.038;11.684;2023-02-15T05:27:00;102537.16;;;-2.73;100.00
7297;BME280;40758;54.038;11.684;2023-02-15T05:29:48;102539.78;;;-2.81;100.00
7297;BME280;40758;54.038;11.684;2023-02-15T05:32:16;102538.91;;;-2.72;100.00
7297;BME280;40758;54.038;11.684;2023-02-15T05:34:45;102534.50;;;-2.82;100.00
7297;BME280;40758;54.038;11.684;2023-02-15T05:37:14;102533.63;;;-2.91;100.00
7297;BME280;40758;54.038;11.684;2023-02-15T05:39:43;102523.09;;;-3.03;100.00
7297;BME280;40758;54.038;11.684;2023-02-15T05:42:12;102531.84;;;-3.07;100.00
7297;BME280;40758;54.038;11.684;2023-02-15T05:44:41;102520.47;;;-3.03;100.00
7297;BME280;40758;54.038;11.684;2023-02-15T05:47:13;102525.72;;;-3.10;100.00
7297;BME280;40758;54.038;11.684;2023-02-15T05:49:42;102536.22;;;-3.19;100.00
7297;BME280;40758;54.038;11.684;2023-02-15T05:52:11;102535.34;;;-3.17;100.00
7297;BME280;40758;54.038;11.684;2023-02-15T05:54:40;102531.84;;;-3.22;100.00
7297;BME280;40758;54.038;11.684;2023-02-15T05:57:09;102533.56;;;-3.27;100.00
7297;BME280;40758;54.038;11.684;2023-02-15T05:59:39;102536.19;;;-3.27;100.00
7297;BME280;40758;54.038;11.684;2023-02-15T06:02:07;102543.22;;;-3.21;100.00
7297;BME280;40758;54.038;11.684;2023-02-15T06:04:38;102534.44;;;-3.20;100.00
7297;BME280;40758;54.038;11.684;2023-02-15T06:07:07;102538.84;;;-3.21;100.00
7297;BME280;40758;54.038;11.684;2023-02-15T06:09:36;102534.47;;;-3.13;100.00
7297;BME280;40758;54.038;11.684;2023-02-15T06:12:04;102524.84;;;-2.90;100.00
7297;BME280;40758;54.038;11.684;2023-02-15T06:14:33;102530.13;;;-2.97;100.00
7297;BME280;40758;54.038;11.684;2023-02-15T06:17:01;102535.34;;;-2.96;100.00
7297;BME280;40758;54.038;11.684;2023-02-15T06:19:31;102530.13;;;-2.99;100.00
7297;BME280;40758;54.038;11.684;2023-02-15T06:22:01;102526.59;;;-2.95;100.00
7297;BME280;40758;54.038;11.684;2023-02-15T06:24:31;102535.38;;;-2.99;100.00
7297;BME280;40758;54.038;11.684;2023-02-15T06:27:00;102534.47;;;-3.07;100.00
7297;BME280;40758;54.038;11.684;2023-02-15T06:29:28;102521.34;;;-3.04;100.00
7297;BME280;40758;54.038;11.684;2023-02-15T06:31:59;102520.47;;;-3.01;100.00
7297;BME280;40758;54.038;11.684;2023-02-15T06:34:28;102523.09;;;-3.04;100.00
7297;BME280;40758;54.038;11.684;2023-02-15T06:36:58;102524.84;;;-3.05;100.00
7297;BME280;40758;54.038;11.684;2023-02-15T06:39:28;102513.44;;;-3.02;100.00
7297;BME280;40758;54.038;11.684;2023-02-15T06:41:59;102511.72;;;-2.99;100.00
7297;BME280;40758;54.038;11.684;2023-02-15T06:44:28;102501.19;;;-2.96;100.00
7297;BME280;40758;54.038;11.684;2023-02-15T06:46:56;102502.94;;;-2.98;100.00
7297;BME280;40758;54.038;11.684;2023-02-15T06:49:25;102505.56;;;-2.98;100.00
7297;BME280;40758;54.038;11.684;2023-02-15T06:51:54;102510.81;;;-2.95;100.00
7297;BME280;40758;54.038;11.684;2023-02-15T06:54:22;102508.19;;;-2.89;100.00
7297;BME280;40758;54.038;11.684;2023-02-15T06:56:52;102526.59;;;-2.76;100.00
7297;BME280;40758;54.038;11.684;2023-02-15T06:59:21;102527.50;;;-2.74;100.00
7297;BME280;40758;54.038;11.684;2023-02-15T07:01:49;102527.50;;;-2.67;100.00
7297;BME280;40758;54.038;11.684;2023-02-15T07:04:18;102523.97;;;-2.58;100.00
7297;BME280;40758;54.038;11.684;2023-02-15T07:06:46;102524.00;;;-2.48;100.00
7297;BME280;40758;54.038;11.684;2023-02-15T07:09:14;102522.22;;;-2.29;100.00
7297;BME280;40758;54.038;11.684;2023-02-15T07:11:43;102530.94;;;-2.13;100.00
7297;BME280;40758;54.038;11.684;2023-02-15T07:14:30;102529.09;;;-1.90;100.00
7297;BME280;40758;54.038;11.684;2023-02-15T07:17:00;102535.22;;;-1.83;100.00
7297;BME280;40758;54.038;11.684;2023-02-15T07:19:28;102528.19;;;-1.74;100.00
7297;BME280;40758;54.038;11.684;2023-02-15T07:21:57;102515.84;;;-1.61;100.00
7297;BME280;40758;54.038;11.684;2023-02-15T07:24:26;102526.31;;;-1.52;100.00
7297;BME280;40758;54.038;11.684;2023-02-15T07:26:54;102531.56;;;-1.43;100.00
7297;BME280;40758;54.038;11.684;2023-02-15T07:29:24;102525.38;;;-1.39;100.00
7297;BME280;40758;54.038;11.684;2023-02-15T07:31:55;102522.63;;;-1.22;100.00
7297;BME280;40758;54.038;11.684;2023-02-15T07:34:23;102514.59;;;-1.02;100.00
7297;BME280;40758;54.038;11.684;2023-02-15T07:36:52;102521.53;;;-0.89;100.00
7297;BME280;40758;54.038;11.684;2023-02-15T07:39:21;102514.34;;;-0.72;100.00
7297;BME280;40758;54.038;11.684;2023-02-15T07:41:49;102503.69;;;-0.58;100.00
7297;BME280;40758;54.038;11.684;2023-02-15T07:44:18;102502.69;;;-0.44;100.00
7297;BME280;40758;54.038;11.684;2023-02-15T07:46:46;102504.31;;;-0.35;100.00
7297;BME280;40758;54.038;11.684;2023-02-15T07:49:16;102493.66;;;-0.24;100.00
7297;BME280;40758;54.038;11.684;2023-02-15T07:51:44;102495.03;;;0.09;100.00
7297;BME280;40758;54.038;11.684;2023-02-15T07:54:13;102497.94;;;0.58;100.00
7297;BME280;40758;54.038;11.684;2023-02-15T07:56:41;102483.13;;;1.04;100.00
7297;BME280;40758;54.038;11.684;2023-02-15T07:59:09;102478.25;;;1.32;100.00
7297;BME280;40758;54.038;11.684;2023-02-15T08:01:39;102475.13;;;1.58;100.00
7297;BME280;40758;54.038;11.684;2023-02-15T08:04:08;102480.47;;;2.01;100.00
7297;BME280;40758;54.038;11.684;2023-02-15T08:06:39;102480.47;;;2.44;100.00
7297;BME280;40758;54.038;11.684;2023-02-15T08:09:08;102480.16;;;2.96;100.00
7297;BME280;40758;54.038;11.684;2023-02-15T08:11:39;102476.78;;;3.25;100.00
7297;BME280;40758;54.038;11.684;2023-02-15T08:14:10;102476.88;;;4.48;100.00
7297;BME280;40758;54.038;11.684;2023-02-15T08:16:41;102464.88;;;4.91;100.00
7297;BME280;40758;54.038;11.684;2023-02-15T08:19:12;102472.94;;;4.62;100.00
7297;BME280;40758;54.038;11.684;2023-02-15T08:21:45;102462.25;;;4.03;100.00
7297;BME280;40758;54.038;11.684;2023-02-15T08:24:15;102473.19;;;4.23;100.00
7297;BME280;40758;54.038;11.684;2023-02-15T08:26:44;102476.28;;;4.08;100.00
7297;BME280;40758;54.038;11.684;2023-02-15T08:29:14;102474.25;;;3.54;100.00
7297;BME280;40758;54.038;11.684;2023-02-15T08:31:44;102470.09;;;4.07;100.00
7297;BME280;40758;54.038;11.684;2023-02-15T08:34:16;102475.03;;;3.90;100.00
7297;BME280;40758;54.038;11.684;2023-02-15T08:36:47;102471.59;;;3.87;100.00
7297;BME280;40758;54.038;11.684;2023-02-15T08:39:16;102472.38;;;3.58;100.00
7297;BME280;40758;54.038;11.684;2023-02-15T08:41:46;102465.25;;;3.26;100.00
7297;BME280;40758;54.038;11.684;2023-02-15T08:44:17;102453.31;;;3.42;100.00
7297;BME280;40758;54.038;11.684;2023-02-15T08:46:48;102442.22;;;3.27;100.00
7297;BME280;40758;54.038;11.684;2023-02-15T08:49:19;102446.72;;;3.23;100.00
7297;BME280;40758;54.038;11.684;2023-02-15T08:51:50;102448.28;;;3.32;100.00
7297;BME280;40758;54.038;11.684;2023-02-15T08:54:20;102444.31;;;3.46;100.00
7297;BME280;40758;54.038;11.684;2023-02-15T08:56:49;102429.22;;;3.81;100.00
7297;BME280;40758;54.038;11.684;2023-02-15T08:59:20;102430.88;;;3.85;100.00
7297;BME280;40758;54.038;11.684;2023-02-15T09:01:51;102428.44;;;4.37;100.00
7297;BME280;40758;54.038;11.684;2023-02-15T09:04:20;102428.28;;;4.70;100.00
7297;BME280;40758;54.038;11.684;2023-02-15T09:06:51;102425.34;;;4.79;100.00
7297;BME280;40758;54.038;11.684;2023-02-15T09:09:20;102427.22;;;4.47;100.00
7297;BME280;40758;54.038;11.684;2023-02-15T09:11:51;102427.75;;;4.59;100.00
7297;BME280;40758;54.038;11.684;2023-02-15T09:14:26;102418.19;;;4.53;100.00
7297;BME280;40758;54.038;11.684;2023-02-15T09:16:55;102419.31;;;4.17;100.00
7297;BME280;40758;54.038;11.684;2023-02-15T09:19:24;102411.09;;;4.24;100.00
7297;BME280;40758;54.038;11.684;2023-02-15T09:21:56;102417.03;;;4.88;100.00
7297;BME280;40758;54.038;11.684;2023-02-15T09:24:32;102419.53;;;5.19;100.00
7297;BME280;40758;54.038;11.684;2023-02-15T09:27:01;102418.00;;;5.63;100.00
7297;BME280;40758;54.038;11.684;2023-02-15T09:29:36;102419.09;;;5.57;100.00
7297;BME280;40758;54.038;11.684;2023-02-15T09:32:05;102409.72;;;5.46;100.00
7297;BME280;40758;54.038;11.684;2023-02-15T09:34:33;102407.34;;;5.88;100.00
7297;BME280;40758;54.038;11.684;2023-02-15T09:37:05;102395.50;;;6.18;100.00
7297;BME280;40758;54.038;11.684;2023-02-15T09:39:37;102395.03;;;6.30;100.00
7297;BME280;40758;54.038;11.684;2023-02-15T09:42:59;102385.53;;;5.75;100.00
7297;BME280;40758;54.038;11.684;2023-02-15T09:45:58;102386.56;;;6.19;100.00
7297;BME280;40758;54.038;11.684;2023-02-15T09:48:39;102375.56;;;6.28;100.00
7297;BME280;40758;54.038;11.684;2023-02-15T09:54:32;102355.66;;;6.14;100.00
7297;BME280;40758;54.038;11.684;2023-02-15T09:57:15;102350.78;;;5.78;100.00
7297;BME280;40758;54.038;11.684;2023-02-15T09:59:58;102346.75;;;6.36;100.00
7297;BME280;40758;54.038;11.684;2023-02-15T10:02:50;102347.31;;;5.99;100.00
7297;BME280;40758;54.038;11.684;2023-02-15T10:05:40;102353.53;;;6.23;100.00
7297;BME280;40758;54.038;11.684;2023-02-15T10:08:57;102349.41;;;6.15;100.00
7297;BME280;40758;54.038;11.684;2023-02-15T10:11:48;102350.94;;;6.85;100.00
7297;BME280;40758;54.038;11.684;2023-02-15T10:14:51;102341.00;;;7.29;100.00
7297;BME280;40758;54.038;11.684;2023-02-15T10:17:43;102339.81;;;7.76;100.00
7297;BME280;40758;54.038;11.684;2023-02-15T10:20:28;102337.66;;;8.02;100.00
7297;BME280;40758;54.038;11.684;2023-02-15T10:23:26;102336.25;;;8.33;100.00
7297;BME280;40758;54.038;11.684;2023-02-15T10:26:07;102327.91;;;8.20;100.00
7297;BME280;40758;54.038;11.684;2023-02-15T10:28:48;102327.91;;;7.83;100.00
7297;BME280;40758;54.038;11.684;2023-02-15T10:31:25;102325.00;;;8.43;100.00
7297;BME280;40758;54.038;11.684;2023-02-15T10:34:14;102319.69;;;8.61;100.00
7297;BME280;40758;54.038;11.684;2023-02-15T10:37:04;102317.28;;;8.00;100.00
7297;BME280;40758;54.038;11.684;2023-02-15T10:39:49;102314.88;;;7.36;100.00
7297;BME280;40758;54.038;11.684;2023-02-15T10:42:30;102300.59;;;6.76;100.00
7297;BME280;40758;54.038;11.684;2023-02-15T10:45:20;102312.00;;;7.00;100.00
7297;BME280;40758;54.038;11.684;2023-02-15T10:48:20;102310.44;;;6.74;100.00
7297;BME280;40758;54.038;11.684;2023-02-15T10:50:53;102310.06;;;6.83;100.00
7297;BME280;40758;54.038;11.684;2023-02-15T10:54:02;102303.25;;;7.17;100.00
7297;BME280;40758;54.038;11.684;2023-02-15T10:56:43;102287.75;;;7.05;100.00
7297;BME280;40758;54.038;11.684;2023-02-15T10:59:34;102291.63;;;6.77;100.00
7297;BME280;40758;54.038;11.684;2023-02-15T11:02:19;102293.09;;;7.05;100.00
7297;BME280;40758;54.038;11.684;2023-02-15T11:05:02;102296.50;;;7.67;100.00
7297;BME280;40758;54.038;11.684;2023-02-15T11:07:40;102289.63;;;8.37;100.00
7297;BME280;40758;54.038;11.684;2023-02-15T11:10:28;102281.72;;;8.34;100.00
7297;BME280;40758;54.038;11.684;2023-02-15T11:13:07;102278.56;;;8.79;100.00
7297;BME280;40758;54.038;11.684;2023-02-15T11:15:43;102276.56;;;8.29;100.00
7297;BME280;40758;54.038;11.684;2023-02-15T11:18:21;102279.50;;;8.61;100.00
7297;BME280;40758;54.038;11.684;2023-02-15T11:20:57;102264.69;;;7.99;100.00
7297;BME280;40758;54.038;11.684;2023-02-15T11:23:30;102271.25;;;7.92;100.00
7297;BME280;40758;54.038;11.684;2023-02-15T11:26:04;102270.81;;;8.20;100.00
7297;BME280;40758;54.038;11.684;2023-02-15T11:28:45;102258.91;;;8.44;100.00
7297;BME280;40758;54.038;11.684;2023-02-15T11:31:19;102265.47;;;8.01;100.00
7297;BME280;40758;54.038;11.684;2023-02-15T11:33:54;102261.44;;;7.92;100.00
7297;BME280;40758;54.038;11.684;2023-02-15T11:36:29;102257.50;;;8.18;99.90
7297;BME280;40758;54.038;11.684;2023-02-15T11:39:09;102251.31;;;7.61;100.00
7297;BME280;40758;54.038;11.684;2023-02-15T11:41:43;102258.50;;;7.22;100.00
7297;BME280;40758;54.038;11.684;2023-02-15T11:44:19;102261.63;;;7.11;100.00
7297;BME280;40758;54.038;11.684;2023-02-15T11:46:50;102256.59;;;7.63;100.00
7297;BME280;40758;54.038;11.684;2023-02-15T11:49:27;102241.47;;;7.81;100.00
7297;BME280;40758;54.038;11.684;2023-02-15T11:52:02;102244.13;;;7.04;100.00
7297;BME280;40758;54.038;11.684;2023-02-15T11:54:36;102244.44;;;7.17;100.00
7297;BME280;40758;54.038;11.684;2023-02-15T11:57:16;102241.13;;;7.12;100.00
7297;BME280;40758;54.038;11.684;2023-02-15T11:59:57;102241.72;;;8.12;100.00
7297;BME280;40758;54.038;11.684;2023-02-15T12:02:28;102224.63;;;8.33;100.00
7297;BME280;40758;54.038;11.684;2023-02-15T12:05:02;102223.84;;;9.00;97.65
7297;BME280;40758;54.038;11.684;2023-02-15T12:07:36;102199.94;;;9.28;95.17
7297;BME280;40758;54.038;11.684;2023-02-15T12:10:18;102203.81;;;9.07;93.58
7297;BME280;40758;54.038;11.684;2023-02-15T12:13:08;102194.16;;;8.36;93.02
7297;BME280;40758;54.038;11.684;2023-02-15T12:15:41;102205.47;;;7.88;95.54
7297;BME280;40758;54.038;11.684;2023-02-15T12:18:21;102203.94;;;8.88;94.44
7297;BME280;40758;54.038;11.684;2023-02-15T12:20:59;102201.25;;;8.88;92.98
7297;BME280;40758;54.038;11.684;2023-02-15T12:23:32;102203.47;;;9.13;93.31
7297;BME280;40758;54.038;11.684;2023-02-15T12:26:02;102201.34;;;9.03;91.38
7297;BME280;40758;54.038;11.684;2023-02-15T12:28:34;102197.00;;;7.78;90.54
7297;BME280;40758;54.038;11.684;2023-02-15T12:31:19;102220.53;;;7.34;93.82
7297;BME280;40758;54.038;11.684;2023-02-15T12:33:52;102218.94;;;7.10;94.83
7297;BME280;40758;54.038;11.684;2023-02-15T12:36:27;102215.91;;;6.78;96.53
7297;BME280;40758;54.038;11.684;2023-02-15T12:39:17;102216.31;;;6.89;97.93
7297;BME280;40758;54.038;11.684;2023-02-15T12:41:59;102206.56;;;6.88;98.86
7297;BME280;40758;54.038;11.684;2023-02-15T12:44:30;102196.75;;;7.47;98.05
7297;BME280;40758;54.038;11.684;2023-02-15T12:47:02;102192.66;;;6.80;97.79
7297;BME280;40758;54.038;11.684;2023-02-15T12:49:33;102201.41;;;6.23;99.82
7297;BME280;40758;54.038;11.684;2023-02-15T12:52:22;102201.03;;;6.31;100.00
7297;BME280;40758;54.038;11.684;2023-02-15T12:54:51;102205.00;;;6.00;100.00
7297;BME280;40758;54.038;11.684;2023-02-15T12:57:29;102195.22;;;5.78;100.00
7297;BME280;40758;54.038;11.684;2023-02-15T13:00:04;102203.63;;;5.90;100.00
7297;BME280;40758;54.038;11.684;2023-02-15T13:02:41;102193.38;;;6.01;100.00
7297;BME280;40758;54.038;11.684;2023-02-15T13:05:21;102193.97;;;6.09;100.00
7297;BME280;40758;54.038;11.684;2023-02-15T13:07:58;102189.53;;;6.08;100.00
7297;BME280;40758;54.038;11.684;2023-02-15T13:10:31;102188.50;;;6.33;100.00
7297;BME280;40758;54.038;11.684;2023-02-15T13:13:09;102192.44;;;7.24;100.00
7297;BME280;40758;54.038;11.684;2023-02-15T13:15:41;102176.53;;;7.96;100.00
7297;BME280;40758;54.038;11.684;2023-02-15T13:18:17;102161.94;;;7.65;99.55
7297;BME280;40758;54.038;11.684;2023-02-15T13:20:49;102163.66;;;6.91;100.00
7297;BME280;40758;54.038;11.684;2023-02-15T13:23:27;102160.03;;;6.54;100.00
7297;BME280;40758;54.038;11.684;2023-02-15T13:25:58;102163.44;;;6.77;100.00